Time;durP1;ratioP1;P1;durP2;ratioP2;P2;SDS_P1;SDS_P2;PMS_P1;PMS_P2;Temp;Humidity;BMP_temperature;BMP_pressure;BME280_temperature;BME280_humidity;BME280_pressure;Samples;Min_cycle;Max_cycle;Signal;HPM_P1;HPM_P2
2022/09/19 00:00:36;;;;;;;;;;;;;;;8.59;88.31;96501.75;5073132;28;19951;-76
2022/09/19 00:03:03;;;;;;;;;;;;;;;8.42;92.26;96500.53;5072898;28;19961;-77
2022/09/19 00:05:29;;;;;;;;;;;;;;;8.24;93.66;96501.16;5072897;28;19953;-76
2022/09/19 00:07:54;;;;;;;;;;;;;;;8.18;92.41;96507.16;5072958;28;19955;-76
2022/09/19 00:10:20;;;;;;;;;;;;;;;8.20;92.43;96500.72;5072836;28;19956;-76
2022/09/19 00:12:46;;;;;;;;;;;;;;;8.27;93.67;96504.16;5072981;28;19984;-77
2022/09/19 00:15:12;;;;;;;;;;;;;;;8.37;92.77;96506.34;5072912;28;19965;-77
2022/09/19 00:17:38;;;;;;;;;;;;;;;8.44;91.00;96501.97;5072715;28;20447;-77
2022/09/19 00:20:05;;;;;;;;;;;;;;;8.45;91.60;96502.78;5074785;28;19970;-77
2022/09/19 00:22:32;;;;;;;;;;;;;;;8.49;92.54;96525.69;5076843;28;19953;-77
2022/09/19 00:24:59;;;;;;;;;;;;;;;8.55;91.94;96513.63;5076588;28;20301;-77
2022/09/19 00:27:25;;;;;;;;;;;;;;;8.56;92.12;96514.41;5076387;28;19963;-77
2022/09/19 00:29:53;;;;;;;;;;;;;;;8.59;92.93;96516.59;5058555;28;19973;-77
2022/09/19 00:32:19;;;;;;;;;;;;;;;8.61;91.28;96509.38;5046027;28;19958;-77
2022/09/19 00:34:47;;;;;;;;;;;;;;;8.61;91.37;96511.97;5076080;28;19966;-77
2022/09/19 00:37:14;;;;;;;;;;;;;;;8.66;91.23;96509.56;5076226;28;19954;-77
2022/09/19 00:39:40;;;;;;;;;;;;;;;8.72;91.10;96527.88;5076351;28;20320;-78
2022/09/19 00:42:13;;;;;;;;;;;;;;;8.75;90.06;96524.03;5076301;28;20402;-77
2022/09/19 00:44:38;;;;;;;;;;;;;;;8.74;90.45;96533.69;5048277;28;19954;-78
2022/09/19 00:47:08;;;;;;;;;;;;;;;8.73;91.46;96544.34;5076106;28;19996;-78
2022/09/19 00:49:37;;;;;;;;;;;;;;;8.72;90.22;96535.72;5076145;28;20043;-78
2022/09/19 00:52:07;;;;;;;;;;;;;;;8.65;89.55;96534.09;5076127;28;19965;-78
2022/09/19 00:54:34;;;;;;;;;;;;;;;8.59;90.32;96545.38;5075688;28;19972;-78
2022/09/19 00:57:01;;;;;;;;;;;;;;;8.56;90.40;96535.31;5075994;28;19945;-78
2022/09/19 00:59:29;;;;;;;;;;;;;;;8.53;90.14;96550.41;5074215;28;20412;-78
2022/09/19 01:01:56;;;;;;;;;;;;;;;8.52;90.47;96550.59;5070665;28;19960;-78
2022/09/19 01:04:23;;;;;;;;;;;;;;;8.54;91.00;96556.44;5075887;28;20327;-78
2022/09/19 01:06:58;;;;;;;;;;;;;;;8.55;90.63;96552.81;5075509;28;19942;-78
2022/09/19 01:09:39;;;;;;;;;;;;;;;8.55;90.56;96555.44;5075303;28;19953;-78
2022/09/19 01:12:23;;;;;;;;;;;;;;;8.58;91.12;96554.22;5076045;28;19948;-78
2022/09/19 01:15:03;;;;;;;;;;;;;;;8.60;90.36;96552.22;5061928;28;20408;-78
2022/09/19 01:17:45;;;;;;;;;;;;;;;8.62;90.29;96560.66;5075705;28;20009;-78
2022/09/19 01:20:18;;;;;;;;;;;;;;;8.62;89.63;96564.06;5075687;28;19964;-78
2022/09/19 01:22:59;;;;;;;;;;;;;;;8.61;89.21;96562.47;5075268;28;19965;-78
2022/09/19 01:25:31;;;;;;;;;;;;;;;8.61;89.19;96562.47;5075818;28;20434;-78
2022/09/19 01:28:08;;;;;;;;;;;;;;;8.59;89.08;96563.66;5075064;28;20330;-78
2022/09/19 01:30:36;;;;;;;;;;;;;;;8.56;88.95;96572.72;5074497;28;19952;-78
2022/09/19 01:33:09;;;;;;;;;;;;;;;8.53;88.60;96573.94;5074872;28;19959;-79
2022/09/19 01:35:37;;;;;;;;;;;;;;;8.50;88.07;96574.34;5074417;28;19971;-78
2022/09/19 01:38:07;;;;;;;;;;;;;;;8.46;87.84;96582.78;5075040;28;19964;-79
2022/09/19 01:40:33;;;;;;;;;;;;;;;8.42;87.54;96582.38;5075020;28;20641;-78
2022/09/19 01:42:59;;;;;;;;;;;;;;;8.37;87.50;96584.75;5075135;28;19956;-79
2022/09/19 01:45:31;;;;;;;;;;;;;;;8.33;87.69;96581.72;5074330;28;19999;-79
2022/09/19 01:48:05;;;;;;;;;;;;;;;8.28;87.40;96570.28;5065845;28;20307;-79
2022/09/19 01:50:31;;;;;;;;;;;;;;;8.23;87.55;96578.72;5074864;28;19959;-78
2022/09/19 01:53:06;;;;;;;;;;;;;;;8.18;87.19;96580.31;5074732;28;19947;-79
2022/09/19 01:55:42;;;;;;;;;;;;;;;8.11;87.09;96575.88;5075127;28;19965;-79
2022/09/19 01:58:28;;;;;;;;;;;;;;;8.05;87.01;96587.13;5074799;28;19952;-78
2022/09/19 02:01:00;;;;;;;;;;;;;;;8.01;87.01;96590.34;5074573;28;20309;-79
2022/09/19 02:03:36;;;;;;;;;;;;;;;7.96;87.09;96588.31;5074380;28;19952;-79
2022/09/19 02:06:08;;;;;;;;;;;;;;;7.91;87.12;96590.69;5074510;28;19952;-79
2022/09/19 02:08:46;;;;;;;;;;;;;;;7.87;87.00;96592.09;5074325;28;20047;-79
2022/09/19 02:11:15;;;;;;;;;;;;;;;7.81;86.81;96593.72;5074302;28;19951;-79
2022/09/19 02:13:44;;;;;;;;;;;;;;;7.79;86.78;96605.31;5074482;28;20458;-79
2022/09/19 02:16:12;;;;;;;;;;;;;;;7.73;86.89;96612.16;5074357;28;20317;-79
2022/09/19 02:18:40;;;;;;;;;;;;;;;7.67;87.02;96608.50;5074757;28;19968;-79
2022/09/19 02:21:10;;;;;;;;;;;;;;;7.64;86.71;96602.88;5074340;28;19964;-79
2022/09/19 02:23:39;;;;;;;;;;;;;;;7.59;86.94;96608.69;5074770;28;19951;-79
2022/09/19 02:26:06;;;;;;;;;;;;;;;7.55;86.81;96607.44;5065275;28;19955;-79
2022/09/19 02:28:38;;;;;;;;;;;;;;;7.52;86.38;96607.84;5073899;28;19959;-79
2022/09/19 02:31:05;;;;;;;;;;;;;;;7.48;87.06;96609.25;5074257;28;19954;-79
2022/09/19 02:33:34;;;;;;;;;;;;;;;7.44;86.87;96613.22;5074209;28;19949;-79
2022/09/19 02:36:07;;;;;;;;;;;;;;;7.41;87.15;96617.03;5073936;28;19949;-79
2022/09/19 02:38:44;;;;;;;;;;;;;;;7.38;87.18;96627.03;5074116;28;19961;-79
2022/09/19 02:41:21;;;;;;;;;;;;;;;7.33;87.17;96630.25;5060364;28;20318;-79
2022/09/19 02:43:55;;;;;;;;;;;;;;;7.29;87.24;96629.00;5055788;28;19946;-79
2022/09/19 02:46:30;;;;;;;;;;;;;;;7.24;87.21;96626.94;5056644;28;19959;-79
2022/09/19 02:49:02;;;;;;;;;;;;;;;7.21;87.07;96629.97;5029743;28;19952;-79
2022/09/19 02:51:36;;;;;;;;;;;;;;;7.20;87.20;96632.75;5059196;28;19968;-79
2022/09/19 02:54:05;;;;;;;;;;;;;;;7.17;87.32;96633.16;5073911;28;19961;-79
2022/09/19 02:56:34;;;;;;;;;;;;;;;7.13;87.22;96635.31;5073712;28;19949;-79
2022/09/19 02:59:03;;;;;;;;;;;;;;;7.09;87.28;96634.09;5055655;28;19953;-79
2022/09/19 03:01:32;;;;;;;;;;;;;;;7.07;87.45;96642.09;5073664;28;19948;-79
2022/09/19 03:04:12;;;;;;;;;;;;;;;7.01;87.61;96636.84;5072988;28;19949;-79
2022/09/19 03:06:44;;;;;;;;;;;;;;;6.97;87.55;96638.22;5073722;28;19954;-79
2022/09/19 03:09:13;;;;;;;;;;;;;;;6.93;87.39;96637.81;5073513;28;19960;-79
2022/09/19 03:11:41;;;;;;;;;;;;;;;6.89;87.58;96645.19;5064809;28;19956;-79
2022/09/19 03:14:07;;;;;;;;;;;;;;;6.86;87.54;96636.94;5055489;28;19969;-79
2022/09/19 03:16:36;;;;;;;;;;;;;;;6.83;87.56;96630.31;5073737;28;19949;-79
2022/09/19 03:19:06;;;;;;;;;;;;;;;6.80;87.26;96628.06;5073999;28;19957;-79
2022/09/19 03:21:32;;;;;;;;;;;;;;;6.76;87.28;96633.84;5073301;28;19953;-79
2022/09/19 03:23:58;;;;;;;;;;;;;;;6.73;87.72;96639.47;5073761;28;19961;-79
2022/09/19 03:26:27;;;;;;;;;;;;;;;6.70;87.45;96643.25;5073604;28;19961;-79
2022/09/19 03:28:54;;;;;;;;;;;;;;;6.68;87.12;96640.81;5055331;28;20414;-79
2022/09/19 03:31:21;;;;;;;;;;;;;;;6.68;87.45;96646.03;5073183;28;19949;-79
2022/09/19 03:33:48;;;;;;;;;;;;;;;6.67;87.21;96641.00;5073570;28;19949;-79
2022/09/19 03:36:14;;;;;;;;;;;;;;;6.67;87.25;96651.44;5073472;28;19953;-79
2022/09/19 03:38:44;;;;;;;;;;;;;;;6.64;87.48;96652.63;5073172;28;19955;-79
2022/09/19 03:41:11;;;;;;;;;;;;;;;6.61;87.65;96652.97;5073424;28;19950;-79
2022/09/19 03:43:38;;;;;;;;;;;;;;;6.57;87.63;96662.16;5074090;28;20316;-79
2022/09/19 03:46:04;;;;;;;;;;;;;;;6.55;87.95;96663.34;5073257;28;19964;-79
2022/09/19 03:48:32;;;;;;;;;;;;;;;6.54;88.03;96664.34;5073127;28;20408;-79
2022/09/19 03:51:00;;;;;;;;;;;;;;;6.52;88.42;96663.72;5073049;28;20435;-79
2022/09/19 03:53:27;;;;;;;;;;;;;;;6.51;88.76;96652.50;5073430;28;19953;-79
2022/09/19 03:55:54;;;;;;;;;;;;;;;6.49;88.83;96652.69;5075677;28;19961;-79
2022/09/19 03:58:20;;;;;;;;;;;;;;;6.49;89.19;96652.69;5076738;28;19960;-79
2022/09/19 04:00:46;;;;;;;;;;;;;;;6.51;89.87;96657.72;5077272;28;19979;-79
2022/09/19 04:03:12;;;;;;;;;;;;;;;6.52;90.39;96658.53;5077460;28;19954;-79
2022/09/19 04:05:38;;;;;;;;;;;;;;;6.49;90.78;96657.91;5076944;28;20027;-79
2022/09/19 04:08:03;;;;;;;;;;;;;;;6.49;91.25;96668.31;5077015;28;20375;-79
2022/09/19 04:10:29;;;;;;;;;;;;;;;6.49;90.90;96654.50;5076299;28;20043;-79
2022/09/19 04:12:56;;;;;;;;;;;;;;;6.48;91.32;96663.28;5076519;28;20003;-79
2022/09/19 04:15:22;;;;;;;;;;;;;;;6.46;91.45;96666.06;5076844;28;20299;-79
2022/09/19 04:17:48;;;;;;;;;;;;;;;6.43;92.10;96666.47;5077174;28;20065;-79
2022/09/19 04:20:14;;;;;;;;;;;;;;;6.42;92.33;96670.03;5058607;28;20059;-79
2022/09/19 04:22:39;;;;;;;;;;;;;;;6.40;92.09;96668.63;5076100;28;19961;-79
2022/09/19 04:25:10;;;;;;;;;;;;;;;6.40;92.56;96684.25;5076345;28;19960;-79
2022/09/19 04:27:37;;;;;;;;;;;;;;;6.41;91.93;96675.47;5076655;28;20414;-79
2022/09/19 04:30:03;;;;;;;;;;;;;;;6.38;92.29;96670.59;5075579;28;19958;-79
2022/09/19 04:32:30;;;;;;;;;;;;;;;6.39;91.79;96677.44;5076155;28;19960;-79
2022/09/19 04:34:57;;;;;;;;;;;;;;;6.40;91.47;96681.66;5076374;28;19967;-79
2022/09/19 04:37:23;;;;;;;;;;;;;;;6.39;91.32;96678.25;5076081;28;19955;-79
2022/09/19 04:39:49;;;;;;;;;;;;;;;6.40;91.18;96677.22;5076157;28;19966;-79
2022/09/19 04:42:18;;;;;;;;;;;;;;;6.38;90.87;96681.81;5076426;28;20011;-79
2022/09/19 04:44:44;;;;;;;;;;;;;;;6.37;90.46;96682.03;5076248;28;20397;-79
2022/09/19 04:47:10;;;;;;;;;;;;;;;6.35;90.60;96678.81;5076341;28;19957;-79
2022/09/19 04:49:40;;;;;;;;;;;;;;;6.31;90.48;96675.75;5058068;28;19964;-79
2022/09/19 04:52:12;;;;;;;;;;;;;;;6.30;90.90;96676.75;5057829;28;19956;-79
2022/09/19 04:54:38;;;;;;;;;;;;;;;6.32;91.47;96681.75;5076060;28;20298;-79
2022/09/19 04:57:07;;;;;;;;;;;;;;;6.32;91.83;96682.59;5076150;28;19963;-79
2022/09/19 04:59:34;;;;;;;;;;;;;;;6.34;92.64;96687.59;5058056;28;20328;-79
2022/09/19 05:02:02;;;;;;;;;;;;;;;6.37;92.82;96693.25;5076203;28;19949;-79
2022/09/19 05:04:29;;;;;;;;;;;;;;;6.39;92.91;96690.47;5075902;28;19954;-79
2022/09/19 05:06:55;;;;;;;;;;;;;;;6.43;93.52;96700.31;5075770;28;19958;-79
2022/09/19 05:09:22;;;;;;;;;;;;;;;6.46;94.16;96710.38;5075492;28;19961;-79
2022/09/19 05:11:53;;;;;;;;;;;;;;;6.48;94.17;96705.78;5075716;28;19958;-79
2022/09/19 05:14:21;;;;;;;;;;;;;;;6.51;93.64;96709.84;5074280;28;19966;-79
2022/09/19 05:16:49;;;;;;;;;;;;;;;6.55;94.23;96712.84;5063051;28;19955;-79
2022/09/19 05:19:16;;;;;;;;;;;;;;;6.59;94.19;96720.09;5075824;28;19967;-79
2022/09/19 05:21:44;;;;;;;;;;;;;;;6.61;95.70;96715.53;5075350;28;19975;-79
2022/09/19 05:24:10;;;;;;;;;;;;;;;6.66;95.50;96715.00;5067024;28;20411;-79
2022/09/19 05:26:40;;;;;;;;;;;;;;;6.69;95.78;96712.00;5075157;28;19965;-79
2022/09/19 05:29:07;;;;;;;;;;;;;;;6.71;95.95;96710.00;5075355;28;20394;-79
2022/09/19 05:31:35;;;;;;;;;;;;;;;6.76;96.38;96722.47;5075177;28;19943;-79
2022/09/19 05:34:01;;;;;;;;;;;;;;;6.78;96.68;96718.69;5075397;28;19952;-79
2022/09/19 05:36:27;;;;;;;;;;;;;;;6.83;96.81;96726.75;5075000;28;20426;-79
2022/09/19 05:38:53;;;;;;;;;;;;;;;6.86;97.17;96723.78;5074770;28;20296;-79
2022/09/19 05:41:19;;;;;;;;;;;;;;;6.91;96.90;96729.25;5073084;28;20012;-79
2022/09/19 05:43:45;;;;;;;;;;;;;;;6.94;96.84;96735.09;5075132;28;19951;-79
2022/09/19 05:46:11;;;;;;;;;;;;;;;6.97;97.79;96738.13;5074712;28;19960;-79
2022/09/19 05:48:37;;;;;;;;;;;;;;;7.00;97.98;96737.75;5057197;28;20040;-79
2022/09/19 05:51:03;;;;;;;;;;;;;;;7.03;97.76;96739.97;5075191;28;19961;-79
2022/09/19 05:56:14;;;;;;;;;;;;;;;7.11;98.18;96745.03;5074811;28;20334;-79
2022/09/19 05:58:40;;;;;;;;;;;;;;;7.16;98.49;96746.28;5074650;28;20038;-79
2022/09/19 06:01:07;;;;;;;;;;;;;;;7.20;99.70;96750.13;5074757;28;19957;-79
2022/09/19 06:03:34;;;;;;;;;;;;;;;7.24;99.33;96757.38;5057015;28;20412;-79
2022/09/19 06:06:00;;;;;;;;;;;;;;;7.28;99.50;96752.59;5074740;28;19957;-79
2022/09/19 06:08:26;;;;;;;;;;;;;;;7.34;99.65;96759.66;5074859;28;19957;-79
2022/09/19 06:10:52;;;;;;;;;;;;;;;7.38;100.00;96753.09;5074642;28;20402;-79
2022/09/19 06:13:19;;;;;;;;;;;;;;;7.38;98.49;96766.13;5074299;28;19957;-79
2022/09/19 06:15:45;;;;;;;;;;;;;;;7.39;96.78;96754.72;5074076;28;19974;-79
2022/09/19 06:18:11;;;;;;;;;;;;;;;7.43;98.74;96766.38;5073848;28;19974;-79
2022/09/19 06:20:38;;;;;;;;;;;;;;;7.49;99.80;96772.63;5074136;28;19957;-79
2022/09/19 06:23:06;;;;;;;;;;;;;;;7.55;99.98;96774.47;5074042;28;19951;-79
2022/09/19 06:25:33;;;;;;;;;;;;;;;7.62;99.61;96783.19;5073872;28;19956;-79
2022/09/19 06:28:00;;;;;;;;;;;;;;;7.72;99.43;96774.97;5074162;28;20413;-79
2022/09/19 06:30:27;;;;;;;;;;;;;;;7.80;99.26;96785.28;5073895;28;19960;-79
2022/09/19 06:32:53;;;;;;;;;;;;;;;7.86;99.70;96787.13;5074054;28;20435;-79
2022/09/19 06:35:20;;;;;;;;;;;;;;;7.91;99.66;96779.50;5073847;28;19970;-80
2022/09/19 06:37:47;;;;;;;;;;;;;;;8.03;97.90;96786.81;5055988;28;20424;-79
2022/09/19 06:40:13;;;;;;;;;;;;;;;8.11;96.07;96784.84;5074176;28;19962;-79
2022/09/19 06:42:40;;;;;;;;;;;;;;;8.19;95.38;96785.69;5074253;28;20435;-79
2022/09/19 06:45:07;;;;;;;;;;;;;;;8.23;95.94;96782.50;5073168;28;19956;-79
2022/09/19 06:47:33;;;;;;;;;;;;;;;8.23;95.42;96787.72;5071736;28;19956;-79
2022/09/19 06:50:02;;;;;;;;;;;;;;;8.23;95.78;96795.56;5066933;28;19960;-79
2022/09/19 06:52:28;;;;;;;;;;;;;;;8.28;96.20;96798.41;5058025;28;19953;-79
2022/09/19 06:54:54;;;;;;;;;;;;;;;8.31;96.39;96799.81;5073470;28;19973;-79
2022/09/19 06:57:20;;;;;;;;;;;;;;;8.33;95.23;96800.41;5073662;28;19957;-79
2022/09/19 06:59:46;;;;;;;;;;;;;;;8.43;95.20;96794.88;5073733;28;20330;-79
2022/09/19 07:02:13;;;;;;;;;;;;;;;8.52;95.38;96797.13;5055217;28;19957;-79
2022/09/19 07:04:39;;;;;;;;;;;;;;;8.61;95.58;96796.94;5071417;28;20438;-79
2022/09/19 07:07:05;;;;;;;;;;;;;;;8.68;95.89;96790.72;5067102;28;19960;-79
2022/09/19 07:09:31;;;;;;;;;;;;;;;8.73;95.75;96800.59;5072313;28;19958;-79
2022/09/19 07:11:57;;;;;;;;;;;;;;;8.78;96.29;96805.22;5071712;28;19956;-79
2022/09/19 07:14:24;;;;;;;;;;;;;;;8.82;95.41;96802.03;5073479;28;20415;-79
2022/09/19 07:16:50;;;;;;;;;;;;;;;8.88;95.52;96808.25;5073121;28;19981;-79
2022/09/19 07:19:16;;;;;;;;;;;;;;;9.02;96.25;96806.50;5055978;28;19963;-79
2022/09/19 07:21:43;;;;;;;;;;;;;;;9.16;91.92;96802.09;5055611;28;19947;-79
2022/09/19 07:24:09;;;;;;;;;;;;;;;9.21;93.77;96799.69;5073446;28;19962;-79
2022/09/19 07:26:34;;;;;;;;;;;;;;;9.22;93.74;96804.72;5073681;28;19950;-79
2022/09/19 07:29:01;;;;;;;;;;;;;;;9.25;94.09;96809.53;5070634;28;20083;-80
2022/09/19 07:31:27;;;;;;;;;;;;;;;9.29;93.79;96815.19;5077454;28;19956;-80
2022/09/19 07:33:53;;;;;;;;;;;;;;;9.29;91.48;96808.13;5077371;28;19958;-79
2022/09/19 07:36:23;;;;;;;;;;;;;;;9.29;92.88;96820.41;5077895;28;19971;-80
2022/09/19 07:38:49;;;;;;;;;;;;;;;9.31;93.52;96819.22;5077592;28;19943;-79
2022/09/19 07:41:16;;;;;;;;;;;;;;;9.35;93.48;96824.84;5077298;28;20061;-80
2022/09/19 07:43:42;;;;;;;;;;;;;;;9.37;92.80;96824.66;5077552;28;19958;-80
2022/09/19 07:46:08;;;;;;;;;;;;;;;9.35;91.76;96830.09;5056958;28;19984;-79
2022/09/19 07:48:34;;;;;;;;;;;;;;;9.35;92.33;96845.78;5074481;28;19962;-79
2022/09/19 07:51:04;;;;;;;;;;;;;;;9.45;93.50;96842.75;5058719;28;20424;-79
2022/09/19 07:53:30;;;;;;;;;;;;;;;9.47;92.30;96841.59;5076691;28;19963;-79
2022/09/19 07:55:56;;;;;;;;;;;;;;;9.60;92.90;96846.00;5076551;28;19961;-77
2022/09/19 07:58:23;;;;;;;;;;;;;;;9.69;92.39;96851.84;5077194;28;19961;-77
2022/09/19 08:00:50;;;;;;;;;;;;;;;9.74;91.85;96847.63;5076680;28;20320;-77
2022/09/19 08:03:17;;;;;;;;;;;;;;;9.82;90.78;96853.66;5076441;28;19960;-77
2022/09/19 08:05:47;;;;;;;;;;;;;;;9.84;90.64;96856.88;5076532;28;19955;-78
2022/09/19 08:08:14;;;;;;;;;;;;;;;9.90;89.40;96850.81;5077234;28;20422;-77
2022/09/19 08:10:41;;;;;;;;;;;;;;;9.94;89.17;96855.44;5076724;28;20420;-77
2022/09/19 08:13:07;;;;;;;;;;;;;;;10.00;89.76;96866.94;5074458;28;19963;-78
2022/09/19 08:15:34;;;;;;;;;;;;;;;10.09;90.30;96862.28;5061441;28;20898;-78
2022/09/19 08:18:01;;;;;;;;;;;;;;;10.22;89.75;96869.31;5072396;28;19989;-78
2022/09/19 08:20:31;;;;;;;;;;;;;;;10.38;88.61;96862.88;5075817;28;19958;-78
2022/09/19 08:22:58;;;;;;;;;;;;;;;10.77;85.58;96852.25;5076733;28;19954;-78
2022/09/19 08:25:24;;;;;;;;;;;;;;;10.99;84.69;96851.13;5076422;28;19955;-78
2022/09/19 08:27:51;;;;;;;;;;;;;;;11.11;85.78;96858.13;5076389;28;20321;-78
2022/09/19 08:30:19;;;;;;;;;;;;;;;11.06;83.06;96844.81;5076503;28;19960;-78
2022/09/19 08:32:45;;;;;;;;;;;;;;;11.01;83.52;96860.41;5076533;28;19950;-77
2022/09/19 08:35:14;;;;;;;;;;;;;;;10.86;83.71;96865.91;5076138;28;19971;-78
2022/09/19 08:37:39;;;;;;;;;;;;;;;10.76;84.20;96868.97;5076805;28;20311;-78
2022/09/19 08:40:18;;;;;;;;;;;;;;;10.67;83.44;96865.00;5075403;28;19978;-78
2022/09/19 08:42:44;;;;;;;;;;;;;;;10.65;85.71;96885.38;5058472;28;19985;-78
2022/09/19 08:45:19;;;;;;;;;;;;;;;10.76;85.65;96879.47;5076144;28;20419;-78
2022/09/19 08:47:47;;;;;;;;;;;;;;;10.91;85.87;96868.72;5074692;28;19984;-78
2022/09/19 08:50:14;;;;;;;;;;;;;;;11.00;83.19;96855.34;5065901;28;19959;-78
2022/09/19 08:52:40;;;;;;;;;;;;;;;11.08;84.83;96876.09;5070232;28;19969;-78
2022/09/19 08:55:10;;;;;;;;;;;;;;;11.34;84.66;96872.53;5074114;28;19958;-78
2022/09/19 08:57:38;;;;;;;;;;;;;;;11.71;83.89;96862.94;5064366;28;19966;-78
2022/09/19 09:00:13;;;;;;;;;;;;;;;11.98;82.08;96862.75;5067894;28;19955;-78
2022/09/19 09:02:51;;;;;;;;;;;;;;;12.09;82.24;96858.63;5072514;28;19947;-78
2022/09/19 09:05:20;;;;;;;;;;;;;;;12.04;80.98;96853.22;5075783;28;19958;-78
2022/09/19 09:07:52;;;;;;;;;;;;;;;12.00;77.72;96831.81;5074590;28;20414;-78
2022/09/19 09:10:18;;;;;;;;;;;;;;;11.89;78.94;96843.84;5075773;28;20414;-78
2022/09/19 09:13:05;;;;;;;;;;;;;;;12.00;79.21;96852.84;5075902;28;19962;-77
2022/09/19 09:15:58;;;;;;;;;;;;;;;12.07;78.56;96855.41;5075595;28;19966;-78
2022/09/19 09:18:40;;;;;;;;;;;;;;;12.11;78.48;96862.63;5075998;28;20330;-78
2022/09/19 09:21:06;;;;;;;;;;;;;;;12.11;78.74;96864.47;5061765;28;19959;-78
2022/09/19 09:23:36;;;;;;;;;;;;;;;12.09;79.84;96869.94;5075432;28;20309;-78
2022/09/19 09:26:06;;;;;;;;;;;;;;;12.06;79.33;96862.50;5075452;28;20012;-78
2022/09/19 09:28:41;;;;;;;;;;;;;;;11.96;79.92;96877.94;5075094;28;20315;-78
2022/09/19 09:31:13;;;;;;;;;;;;;;;11.88;77.59;96854.53;5075036;28;19979;-78
2022/09/19 09:33:47;;;;;;;;;;;;;;;11.94;78.27;96853.69;5075538;28;19953;-78
2022/09/19 09:36:15;;;;;;;;;;;;;;;12.06;78.95;96862.50;5073660;28;19985;-78
2022/09/19 09:38:52;;;;;;;;;;;;;;;12.15;78.56;96860.38;5074844;28;19964;-78
2022/09/19 09:44:15;;;;;;;;;;;;;;;12.17;78.08;96868.84;5072235;28;19951;-78
2022/09/19 09:47:01;;;;;;;;;;;;;;;12.21;77.51;96851.63;5074313;28;19954;-78
2022/09/19 09:49:29;;;;;;;;;;;;;;;12.17;77.43;96856.50;5056533;28;19955;-78
2022/09/19 09:52:04;;;;;;;;;;;;;;;12.11;77.04;96857.38;5073488;28;19949;-78
2022/09/19 09:57:23;;;;;;;;;;;;;;;12.02;79.20;96871.81;5073626;28;19961;-78
2022/09/19 10:05:44;;;;;;;;;;;;;;;12.04;77.28;96859.28;5071421;28;19956;-78
2022/09/19 10:08:27;;;;;;;;;;;;;;;12.11;77.00;96867.09;5073830;28;19952;-78
2022/09/19 10:11:11;;;;;;;;;;;;;;;12.09;75.92;96848.91;5070661;28;19966;-78
2022/09/19 10:13:42;;;;;;;;;;;;;;;12.12;77.46;96869.50;5069287;28;19951;-77
2022/09/19 10:16:08;;;;;;;;;;;;;;;12.19;77.12;96869.44;5073505;28;20346;-78
2022/09/19 10:18:47;;;;;;;;;;;;;;;12.27;76.45;96855.22;5074095;28;20338;-78
2022/09/19 10:21:13;;;;;;;;;;;;;;;12.30;76.88;96860.03;5059279;28;19949;-77
2022/09/19 10:23:42;;;;;;;;;;;;;;;12.38;76.74;96852.66;5074149;28;19970;-78
2022/09/19 10:26:14;;;;;;;;;;;;;;;12.46;76.29;96850.75;5073995;28;19953;-77
2022/09/19 10:28:56;;;;;;;;;;;;;;;12.52;75.61;96847.25;5073917;28;19957;-78
2022/09/19 10:31:27;;;;;;;;;;;;;;;12.59;76.41;96861.91;5074029;28;20386;-78
2022/09/19 10:33:53;;;;;;;;;;;;;;;12.65;75.28;96846.28;5071799;28;19950;-78
2022/09/19 10:36:21;;;;;;;;;;;;;;;12.69;75.70;96847.47;5067723;28;20023;-78
2022/09/19 10:38:58;;;;;;;;;;;;;;;12.72;75.28;96847.00;5074358;28;20421;-77
2022/09/19 10:41:26;;;;;;;;;;;;;;;12.71;75.00;96850.69;5062266;28;19956;-78
2022/09/19 10:43:54;;;;;;;;;;;;;;;12.72;75.43;96847.81;5063994;28;20422;-78
2022/09/19 10:46:26;;;;;;;;;;;;;;;12.70;74.17;96838.53;5056138;28;19961;-78
2022/09/19 10:48:56;;;;;;;;;;;;;;;12.69;73.67;96845.63;5072474;28;19958;-78
2022/09/19 10:51:25;;;;;;;;;;;;;;;12.66;74.16;96846.09;5073578;28;20405;-78
2022/09/19 10:53:53;;;;;;;;;;;;;;;12.65;75.01;96859.44;5074481;28;19957;-78
2022/09/19 10:56:25;;;;;;;;;;;;;;;12.67;74.55;96854.78;5055739;28;20313;-78
2022/09/19 10:59:20;;;;;;;;;;;;;;;12.67;74.16;96847.69;5072307;28;19952;-78
2022/09/19 11:02:05;;;;;;;;;;;;;;;12.67;74.50;96857.41;5069691;28;19946;-78
2022/09/19 11:04:31;;;;;;;;;;;;;;;12.64;74.98;96863.09;5070173;28;19967;-78
2022/09/19 11:07:14;;;;;;;;;;;;;;;12.59;75.22;96869.81;5074017;28;19990;-78
2022/09/19 11:09:42;;;;;;;;;;;;;;;12.53;75.26;96870.69;5073663;28;19973;-77
2022/09/19 11:12:13;;;;;;;;;;;;;;;12.50;75.53;96873.78;5073633;28;20326;-77
2022/09/19 11:14:40;;;;;;;;;;;;;;;12.54;75.50;96874.94;5061984;28;19958;-77
2022/09/19 11:17:30;;;;;;;;;;;;;;;12.59;75.90;96880.34;5061547;28;19992;-78
2022/09/19 11:20:16;;;;;;;;;;;;;;;12.63;73.40;96859.66;5073724;28;19953;-78
2022/09/19 11:22:54;;;;;;;;;;;;;;;12.72;75.49;96874.13;5073727;28;19960;-77
2022/09/19 11:25:29;;;;;;;;;;;;;;;12.84;74.76;96871.56;5073249;28;19961;-78
2022/09/19 11:28:04;;;;;;;;;;;;;;;12.88;71.84;96841.13;5073657;28;20411;-77
2022/09/19 11:30:33;;;;;;;;;;;;;;;12.78;71.29;96846.91;5073422;28;19957;-78
2022/09/19 11:33:10;;;;;;;;;;;;;;;12.80;70.30;96829.06;5073677;28;20403;-77
2022/09/19 11:36:02;;;;;;;;;;;;;;;12.89;71.18;96840.13;5069690;28;20015;-77
2022/09/19 11:38:41;;;;;;;;;;;;;;;13.02;73.60;96862.84;5065759;28;19963;-77
2022/09/19 11:41:30;;;;;;;;;;;;;;;13.13;74.94;96877.88;5061643;28;20431;-77
2022/09/19 11:44:11;;;;;;;;;;;;;;;13.15;73.63;96864.50;5073177;28;19956;-77
2022/09/19 11:47:02;;;;;;;;;;;;;;;13.10;73.34;96865.16;5072519;28;19969;-78
2022/09/19 11:49:50;;;;;;;;;;;;;;;13.03;73.22;96866.28;5067987;28;20393;-77
2022/09/19 11:52:17;;;;;;;;;;;;;;;12.99;73.78;96871.16;5073567;28;19958;-77
2022/09/19 11:55:05;;;;;;;;;;;;;;;13.03;74.31;96879.44;5073012;28;19949;-77
2022/09/19 11:57:39;;;;;;;;;;;;;;;13.06;70.99;96836.84;5066115;28;19958;-77
2022/09/19 12:00:13;;;;;;;;;;;;;;;13.09;72.80;96853.00;5073189;28;19958;-77
2022/09/19 12:02:53;;;;;;;;;;;;;;;13.11;73.04;96855.44;5073026;28;19950;-77
2022/09/19 12:05:19;;;;;;;;;;;;;;;13.12;73.92;96849.13;5073473;28;20440;-77
2022/09/19 12:07:54;;;;;;;;;;;;;;;13.12;73.13;96846.47;5072072;28;19949;-77
2022/09/19 12:10:32;;;;;;;;;;;;;;;13.08;72.10;96832.16;5068229;28;19958;-77
2022/09/19 12:13:03;;;;;;;;;;;;;;;13.04;73.25;96844.16;5072696;28;19945;-78
2022/09/19 12:15:30;;;;;;;;;;;;;;;13.02;73.16;96840.94;5071056;28;19959;-77
2022/09/19 12:18:01;;;;;;;;;;;;;;;12.98;73.82;96851.16;5076445;28;19977;-77
2022/09/19 12:20:35;;;;;;;;;;;;;;;12.94;73.95;96850.78;5062495;28;20320;-77
2022/09/19 12:26:06;;;;;;;;;;;;;;;12.99;74.47;96858.00;5076275;28;19971;-77
2022/09/19 12:28:37;;;;;;;;;;;;;;;12.98;72.96;96838.78;5076309;28;19980;-77
2022/09/19 12:31:05;;;;;;;;;;;;;;;12.93;72.35;96833.38;5076465;28;19952;-77
2022/09/19 12:33:37;;;;;;;;;;;;;;;12.93;74.14;96856.25;5075630;28;19964;-77
2022/09/19 12:36:14;;;;;;;;;;;;;;;12.89;73.90;96845.41;5076080;28;19968;-77
2022/09/19 12:38:51;;;;;;;;;;;;;;;12.83;77.48;96877.03;5075278;28;19959;-78
2022/09/19 12:41:27;;;;;;;;;;;;;;;12.81;77.77;96869.38;5062598;28;19965;-77
2022/09/19 12:44:12;;;;;;;;;;;;;;;12.78;78.64;96875.88;5076049;28;19951;-77
2022/09/19 12:47:00;;;;;;;;;;;;;;;12.78;76.88;96867.97;5069707;28;19963;-77
2022/09/19 12:49:45;;;;;;;;;;;;;;;12.83;77.32;96869.13;5060450;28;19974;-77
2022/09/19 12:52:20;;;;;;;;;;;;;;;12.84;75.96;96858.41;5075863;28;20419;-77
2022/09/19 12:54:52;;;;;;;;;;;;;;;12.86;76.23;96852.91;5075309;28;19972;-78
2022/09/19 12:57:41;;;;;;;;;;;;;;;12.84;76.32;96853.13;5052442;28;19972;-77
2022/09/19 13:00:10;;;;;;;;;;;;;;;12.80;75.32;96851.97;5064862;28;19954;-77
2022/09/19 13:02:44;;;;;;;;;;;;;;;12.76;76.41;96858.69;5073557;28;20305;-78
2022/09/19 13:05:21;;;;;;;;;;;;;;;12.74;75.79;96847.59;5067012;28;20324;-78
2022/09/19 13:07:53;;;;;;;;;;;;;;;12.74;75.77;96853.66;5075109;28;19943;-78
2022/09/19 13:10:22;;;;;;;;;;;;;;;12.72;75.87;96842.53;5073413;28;19954;-78
2022/09/19 13:13:02;;;;;;;;;;;;;;;12.73;75.18;96838.09;5069288;28;19941;-78
2022/09/19 13:16:00;;;;;;;;;;;;;;;12.66;74.04;96829.47;5071517;28;20335;-78
2022/09/19 13:24:02;;;;;;;;;;;;;;;12.82;74.49;96822.81;5071892;28;19967;-78
2022/09/19 13:26:35;;;;;;;;;;;;;;;12.98;75.90;96841.41;5071630;28;19956;-78
2022/09/19 13:29:03;;;;;;;;;;;;;;;13.18;73.41;96806.88;5075393;28;20333;-78
2022/09/19 13:31:39;;;;;;;;;;;;;;;13.43;72.12;96798.03;5074441;28;20416;-77